createdAt,value
2022-10-04T00:00:37.855Z,76.55
2022-10-04T00:03:17.159Z,76.25
2022-10-04T00:05:41.916Z,76.42
2022-10-04T00:08:37.269Z,76.29
2022-10-04T00:11:17.446Z,76.38
2022-10-04T00:13:41.626Z,76.37
2022-10-04T00:16:03.706Z,76.05
2022-10-04T00:18:40.468Z,76.49
2022-10-04T00:21:06.207Z,76.54
2022-10-04T00:23:41.162Z,76.58
2022-10-04T00:26:26.083Z,76.50
2022-10-04T00:28:49.549Z,76.88
2022-10-04T00:31:29.246Z,76.64
2022-10-04T00:34:09.460Z,76.92
2022-10-04T00:36:40.236Z,76.63
2022-10-04T00:39:07.756Z,76.84
2022-10-04T00:41:49.374Z,76.61
2022-10-04T00:44:41.700Z,76.87
2022-10-04T00:47:43.295Z,76.67
2022-10-04T00:50:25.380Z,76.69
2022-10-04T00:52:56.766Z,76.89
2022-10-04T00:55:26.267Z,76.77
2022-10-04T00:57:59.346Z,76.50
2022-10-04T01:00:22.861Z,76.75
2022-10-04T01:03:21.125Z,76.46
2022-10-04T01:05:53.217Z,76.76
2022-10-04T01:08:25.559Z,76.61
2022-10-04T01:10:58.118Z,76.69
2022-10-04T01:13:26.188Z,76.96
2022-10-04T01:15:56.772Z,76.85
2022-10-04T01:18:18.557Z,76.66
2022-10-04T01:21:15.708Z,77.11
2022-10-04T01:23:52.053Z,77.28
2022-10-04T01:26:35.041Z,76.87
2022-10-04T01:29:12.378Z,77.08
2022-10-04T01:31:39.080Z,77.09
2022-10-04T01:34:05.109Z,77.33
2022-10-04T01:36:28.916Z,77.16
2022-10-04T01:38:51.916Z,77.41
2022-10-04T01:41:19.980Z,77.20
2022-10-04T01:43:46.774Z,77.12
2022-10-04T01:46:22.481Z,77.29
2022-10-04T01:48:46.552Z,77.34
2022-10-04T01:51:36.668Z,77.72
2022-10-04T01:54:15.169Z,77.61
2022-10-04T01:56:46.879Z,77.33
2022-10-04T01:59:23.717Z,77.24
2022-10-04T02:02:04.464Z,77.43
2022-10-04T02:04:38.682Z,77.49
2022-10-04T02:07:04.071Z,77.60
2022-10-04T02:09:34.222Z,77.44
2022-10-04T02:11:58.295Z,77.45
2022-10-04T02:14:29.899Z,77.22
2022-10-04T02:16:56.414Z,77.16
2022-10-04T02:19:19.893Z,77.39
2022-10-04T02:21:44.051Z,77.38
2022-10-04T02:24:11.465Z,77.27
2022-10-04T02:26:33.355Z,77.21
2022-10-04T02:28:55.239Z,77.24
2022-10-04T02:31:41.956Z,77.15
2022-10-04T02:34:05.186Z,77.14
2022-10-04T02:36:29.665Z,77.39
2022-10-04T02:39:02.639Z,77.29
2022-10-04T02:41:37.797Z,77.45
2022-10-04T02:44:17.774Z,77.53
2022-10-04T02:46:54.383Z,77.43
2022-10-04T02:49:35.093Z,77.50
2022-10-04T02:52:16.282Z,77.59
2022-10-04T02:54:57.298Z,77.34
2022-10-04T02:57:23.402Z,77.48
2022-10-04T02:59:45.483Z,77.43
2022-10-04T03:02:30.668Z,77.39
2022-10-04T03:04:56.431Z,77.25
2022-10-04T03:07:20.510Z,77.25
2022-10-04T03:09:42.824Z,77.41
2022-10-04T03:12:06.433Z,77.28
2022-10-04T03:14:29.185Z,77.24
2022-10-04T03:16:55.104Z,77.27
2022-10-04T03:19:19.326Z,77.34
2022-10-04T03:21:44.935Z,77.65
2022-10-04T03:24:10.369Z,77.57
2022-10-04T03:26:47.890Z,77.43
2022-10-04T03:29:14.160Z,77.65
2022-10-04T03:31:44.000Z,77.59
2022-10-04T03:34:13.814Z,77.80
2022-10-04T03:36:35.808Z,77.56
2022-10-04T03:38:58.950Z,77.78
2022-10-04T03:41:25.981Z,77.76
2022-10-04T03:43:50.398Z,77.48
2022-10-04T03:46:14.517Z,77.29
2022-10-04T03:48:53.291Z,77.59
2022-10-04T03:51:21.782Z,77.36
2022-10-04T03:53:49.546Z,77.36
2022-10-04T03:56:28.549Z,77.45
2022-10-04T03:58:51.987Z,77.53
2022-10-04T04:01:40.553Z,77.67
2022-10-04T04:04:36.725Z,77.29
2022-10-04T04:07:33.958Z,77.33
2022-10-04T04:10:16.031Z,77.67
2022-10-04T04:12:47.846Z,77.40
2022-10-04T04:15:14.837Z,77.65
2022-10-04T04:17:41.731Z,77.52
2022-10-04T04:20:17.347Z,77.97
2022-10-04T04:22:43.433Z,77.62
2022-10-04T04:25:14.443Z,77.73
2022-10-04T04:27:40.796Z,78.08
2022-10-04T04:30:06.428Z,77.55
2022-10-04T04:32:46.432Z,77.56
2022-10-04T04:35:22.731Z,77.52
2022-10-04T04:37:44.501Z,77.82
2022-10-04T04:40:34.037Z,77.64
2022-10-04T04:43:00.596Z,77.39
2022-10-04T04:45:30.701Z,77.29
2022-10-04T04:47:58.547Z,77.46
2022-10-04T04:50:25.122Z,77.36
2022-10-04T04:53:22.383Z,77.65
2022-10-04T04:56:04.205Z,77.86
2022-10-04T04:58:38.060Z,78.04
2022-10-04T05:01:05.378Z,78.13
2022-10-04T05:03:30.023Z,77.90
2022-10-04T05:05:57.363Z,78.16
2022-10-04T05:08:24.440Z,77.99
2022-10-04T05:11:06.193Z,77.59
2022-10-04T05:13:51.416Z,78.00
2022-10-04T05:16:52.933Z,78.03
2022-10-04T05:19:25.120Z,78.05
2022-10-04T05:21:49.039Z,78.11
2022-10-04T05:24:21.235Z,78.05
2022-10-04T05:26:43.430Z,77.99
2022-10-04T05:29:20.118Z,78.07
2022-10-04T05:31:56.536Z,78.15
2022-10-04T05:34:30.725Z,77.77
2022-10-04T05:37:25.383Z,78.14
2022-10-04T05:40:05.786Z,78.15
2022-10-04T05:42:45.484Z,77.94
2022-10-04T05:45:28.300Z,78.14
2022-10-04T05:47:57.531Z,78.17
2022-10-04T05:50:42.209Z,77.97
2022-10-04T05:53:29.104Z,78.17
2022-10-04T05:56:16.551Z,78.10
2022-10-04T05:59:40.601Z,78.17
2022-10-04T06:02:31.891Z,78.03
2022-10-04T06:05:11.339Z,78.10
2022-10-04T06:08:36.985Z,78.14
2022-10-04T06:11:52.562Z,78.24
2022-10-04T06:14:30.647Z,78.21
2022-10-04T06:17:18.929Z,78.36
2022-10-04T06:20:12.776Z,78.21
2022-10-04T06:22:43.257Z,78.62
2022-10-04T06:25:26.313Z,78.45
2022-10-04T06:28:19.046Z,78.51
2022-10-04T06:31:24.453Z,78.31
2022-10-04T06:34:13.416Z,78.68
2022-10-04T06:37:05.657Z,78.63
2022-10-04T06:39:50.959Z,78.64
2022-10-04T06:42:12.658Z,79.01
2022-10-04T06:44:51.976Z,78.95
2022-10-04T06:48:04.862Z,78.75
2022-10-04T06:51:10.006Z,78.83
2022-10-04T06:54:03.539Z,79.06
2022-10-04T06:56:47.109Z,79.32
2022-10-04T06:59:57.273Z,79.43
2022-10-04T07:02:34.408Z,79.40
2022-10-04T07:05:09.406Z,79.29
2022-10-04T07:07:37.954Z,79.35
2022-10-04T07:10:33.149Z,79.42
2022-10-04T07:13:03.988Z,79.33
2022-10-04T07:15:44.649Z,79.18
2022-10-04T07:18:15.982Z,79.34
2022-10-04T07:20:38.440Z,79.41
2022-10-04T07:23:14.249Z,79.30
2022-10-04T07:25:48.260Z,79.54
2022-10-04T07:28:28.559Z,79.01
2022-10-04T07:31:21.898Z,78.65
2022-10-04T07:33:49.671Z,78.27
2022-10-04T07:36:21.856Z,77.63
2022-10-04T07:39:07.386Z,77.62
2022-10-04T07:41:37.396Z,77.34
2022-10-04T07:44:13.174Z,76.60
2022-10-04T07:47:02.185Z,76.37
2022-10-04T07:49:25.788Z,75.69
2022-10-04T07:52:18.432Z,75.82
2022-10-04T07:55:05.531Z,75.48
2022-10-04T07:58:16.774Z,75.39
2022-10-04T08:00:49.500Z,74.71
2022-10-04T08:03:59.359Z,73.72
2022-10-04T08:06:33.038Z,74.16
2022-10-04T08:09:21.318Z,73.96
2022-10-04T08:11:58.170Z,73.82
2022-10-04T08:14:26.214Z,74.02
2022-10-04T08:17:31.965Z,73.57
2022-10-04T08:20:29.112Z,73.13
2022-10-04T08:23:12.580Z,73.04
2022-10-04T08:26:13.578Z,72.60
2022-10-04T08:29:12.294Z,72.34
2022-10-04T08:32:00.862Z,72.37
2022-10-04T08:34:57.955Z,71.50
2022-10-04T08:37:53.941Z,70.72
2022-10-04T08:40:45.629Z,70.80
2022-10-04T08:43:13.292Z,70.98
2022-10-04T08:46:32.184Z,70.24
2022-10-04T08:49:27.210Z,69.94
2022-10-04T08:52:40.721Z,69.75
2022-10-04T08:55:35.131Z,69.46
2022-10-04T08:58:38.964Z,69.52
2022-10-04T09:01:45.297Z,69.47
2022-10-04T09:04:33.708Z,68.14
2022-10-04T09:07:59.416Z,67.62
2022-10-04T09:10:48.977Z,66.99
2022-10-04T09:13:22.544Z,66.43
2022-10-04T09:15:51.411Z,66.16
2022-10-04T09:18:13.245Z,66.32
2022-10-04T09:21:10.884Z,65.74
2022-10-04T09:23:34.166Z,65.71
2022-10-04T09:26:24.429Z,65.42
2022-10-04T09:29:26.944Z,64.46
2022-10-04T09:32:18.352Z,63.40
2022-10-04T09:35:07.197Z,63.46
2022-10-04T09:38:03.934Z,64.07
2022-10-04T09:41:11.382Z,62.98
2022-10-04T09:44:30.442Z,62.64
2022-10-04T09:47:22.108Z,62.75
2022-10-04T09:49:46.969Z,61.14
2022-10-04T09:52:39.976Z,61.96
2022-10-04T09:55:35.888Z,62.47
2022-10-04T09:58:37.055Z,62.10
2022-10-04T10:01:29.943Z,62.32
2022-10-04T10:04:41.482Z,61.79
2022-10-04T10:07:37.108Z,60.39
2022-10-04T10:10:20.678Z,60.19
2022-10-04T10:13:07.095Z,60.42
2022-10-04T10:15:59.503Z,60.37
2022-10-04T10:19:05.669Z,59.96
2022-10-04T10:21:38.455Z,60.75
2022-10-04T10:24:27.188Z,59.12
2022-10-04T10:27:11.180Z,58.78
2022-10-04T10:29:59.517Z,58.42
2022-10-04T10:32:43.474Z,58.28
2022-10-04T10:35:33.091Z,58.35
2022-10-04T10:38:16.140Z,58.03
2022-10-04T10:41:41.789Z,58.20
2022-10-04T10:44:29.715Z,58.56
2022-10-04T10:47:05.191Z,58.07
2022-10-04T10:49:55.218Z,57.56
2022-10-04T10:52:52.705Z,57.09
2022-10-04T10:55:49.200Z,57.54
2022-10-04T10:58:57.267Z,57.15
2022-10-04T11:01:50.120Z,57.56
2022-10-04T11:04:20.835Z,57.00
2022-10-04T11:07:04.358Z,57.46
2022-10-04T11:10:07.191Z,56.82
2022-10-04T11:13:04.791Z,56.38
2022-10-04T11:16:23.963Z,56.58
2022-10-04T11:19:10.903Z,55.50
2022-10-04T11:22:06.936Z,55.43
2022-10-04T11:25:19.543Z,54.93
2022-10-04T11:27:59.670Z,54.82
2022-10-04T11:30:28.934Z,54.75
2022-10-04T11:33:42.581Z,55.25
2022-10-04T11:36:25.411Z,55.29
2022-10-04T11:39:26.579Z,54.74
2022-10-04T11:42:00.643Z,53.97
2022-10-04T11:44:41.206Z,54.36
2022-10-04T11:47:40.823Z,54.27
2022-10-04T11:50:45.281Z,53.77
2022-10-04T11:53:54.740Z,53.16
2022-10-04T11:57:08.710Z,52.94
2022-10-04T11:59:52.707Z,51.94
2022-10-04T12:03:09.406Z,52.14
2022-10-04T12:05:48.483Z,52.40
2022-10-04T12:08:52.519Z,52.22
2022-10-04T12:12:18.993Z,51.33
2022-10-04T12:15:08.509Z,50.53
2022-10-04T12:18:08.372Z,50.59
2022-10-04T12:20:58.239Z,50.52
2022-10-04T12:23:44.883Z,51.40
2022-10-04T12:26:43.700Z,51.34
2022-10-04T12:29:36.458Z,50.91
2022-10-04T12:32:09.169Z,51.34
2022-10-04T12:35:16.507Z,51.36
2022-10-04T12:37:58.759Z,51.37
2022-10-04T12:40:56.972Z,51.63
2022-10-04T12:43:56.713Z,50.48
2022-10-04T12:46:55.249Z,50.99
2022-10-04T12:49:49.978Z,50.96
2022-10-04T12:52:27.123Z,50.85
2022-10-04T12:55:10.660Z,50.20
2022-10-04T12:58:05.793Z,50.18
2022-10-04T13:00:41.323Z,50.25
2022-10-04T13:03:40.357Z,50.89
2022-10-04T13:06:24.033Z,50.14
2022-10-04T13:09:26.063Z,49.82
2022-10-04T13:12:09.096Z,48.55
2022-10-04T13:15:04.771Z,49.10
2022-10-04T13:17:36.391Z,49.48
2022-10-04T13:20:34.481Z,49.43
2022-10-04T13:23:03.344Z,48.61
2022-10-04T13:26:11.719Z,48.42
2022-10-04T13:29:15.628Z,48.37
2022-10-04T13:32:03.148Z,49.13
2022-10-04T13:34:46.359Z,49.11
2022-10-04T13:37:32.372Z,48.86
2022-10-04T13:40:30.850Z,49.00
2022-10-04T13:43:21.232Z,49.23
2022-10-04T13:46:02.708Z,48.10
2022-10-04T13:48:45.160Z,47.56
2022-10-04T13:52:36.353Z,47.06
2022-10-04T13:55:38.769Z,46.35
2022-10-04T13:58:41.085Z,46.46
2022-10-04T14:01:48.996Z,46.01
2022-10-04T14:04:44.525Z,46.58
2022-10-04T14:08:05.191Z,46.44
2022-10-04T14:11:32.439Z,46.67
2022-10-04T14:14:39.211Z,46.66
2022-10-04T14:17:28.354Z,46.85
2022-10-04T14:20:24.608Z,47.54
2022-10-04T14:23:07.336Z,47.44
2022-10-04T14:26:08.571Z,48.06
2022-10-04T14:29:24.068Z,47.84
2022-10-04T14:32:55.638Z,48.38
2022-10-04T14:36:16.375Z,48.68
2022-10-04T14:39:34.454Z,49.30
2022-10-04T14:42:41.489Z,49.51
2022-10-04T14:45:11.664Z,49.70
2022-10-04T14:48:06.578Z,49.82
2022-10-04T14:50:57.780Z,50.74
2022-10-04T14:53:49.945Z,49.87
2022-10-04T14:56:34.586Z,49.76
2022-10-04T14:59:14.558Z,50.34
2022-10-04T15:02:04.910Z,50.66
2022-10-04T15:04:58.250Z,49.78
2022-10-04T15:07:35.142Z,49.89
2022-10-04T15:09:59.931Z,50.12
2022-10-04T15:13:10.583Z,50.30
2022-10-04T15:15:53.249Z,50.45
2022-10-04T15:18:39.527Z,50.94
2022-10-04T15:21:39.912Z,51.32
2022-10-04T15:24:16.861Z,51.58
2022-10-04T15:27:09.800Z,51.56
2022-10-04T15:29:43.740Z,51.46
2022-10-04T15:32:35.568Z,52.13
2022-10-04T15:35:22.894Z,52.14
2022-10-04T15:37:50.920Z,52.40
2022-10-04T15:40:32.238Z,52.54
2022-10-04T15:43:30.243Z,52.85
2022-10-04T15:46:07.929Z,53.25
2022-10-04T15:49:07.484Z,53.35
2022-10-04T15:51:49.322Z,53.50
2022-10-04T15:54:47.278Z,53.95
2022-10-04T15:57:41.510Z,54.26
2022-10-04T16:00:27.296Z,54.50
2022-10-04T16:03:13.506Z,54.84
2022-10-04T16:06:01.883Z,54.91
2022-10-04T16:09:01.505Z,55.45
2022-10-04T16:12:10.748Z,55.65
2022-10-04T16:15:01.265Z,55.89
2022-10-04T16:18:17.201Z,56.22
2022-10-04T16:21:15.326Z,56.38
2022-10-04T16:23:43.222Z,56.80
2022-10-04T16:26:34.027Z,56.71
2022-10-04T16:29:22.983Z,57.00
2022-10-04T16:32:17.597Z,57.00
2022-10-04T16:34:57.153Z,57.26
2022-10-04T16:37:24.826Z,57.35
2022-10-04T16:40:05.217Z,57.67
2022-10-04T16:42:48.689Z,57.78
2022-10-04T16:45:10.411Z,57.93
2022-10-04T16:47:48.126Z,58.17
2022-10-04T16:50:13.100Z,58.32
2022-10-04T16:53:13.340Z,58.53
2022-10-04T16:55:57.789Z,58.57
2022-10-04T16:58:28.727Z,58.54
2022-10-04T17:01:23.890Z,58.88
2022-10-04T17:04:31.995Z,58.91
2022-10-04T17:06:58.330Z,59.44
2022-10-04T17:09:47.476Z,59.66
2022-10-04T17:12:45.670Z,59.57
2022-10-04T17:15:42.116Z,59.74
2022-10-04T17:18:52.089Z,59.86
2022-10-04T17:21:46.145Z,60.29
2022-10-04T17:24:37.876Z,60.74
2022-10-04T17:27:35.443Z,60.92
2022-10-04T17:30:46.788Z,61.15
2022-10-04T17:33:27.064Z,61.58
2022-10-04T17:36:17.024Z,61.52
2022-10-04T17:39:00.006Z,61.85
2022-10-04T17:41:45.592Z,62.00
2022-10-04T17:44:36.949Z,62.03
2022-10-04T17:47:23.759Z,62.39
2022-10-04T17:50:34.533Z,62.42
2022-10-04T17:53:30.088Z,62.62
2022-10-04T17:55:59.951Z,62.87
2022-10-04T17:58:42.977Z,62.88
2022-10-04T18:01:28.871Z,63.04
2022-10-04T18:03:58.815Z,63.43
2022-10-04T18:06:49.016Z,63.25
2022-10-04T18:09:27.818Z,63.37
2022-10-04T18:11:57.029Z,63.65
2022-10-04T18:14:30.595Z,63.88
2022-10-04T18:16:57.919Z,63.87
2022-10-04T18:19:50.230Z,64.05
2022-10-04T18:22:21.712Z,64.28
2022-10-04T18:25:09.963Z,64.38
2022-10-04T18:27:32.088Z,64.63
2022-10-04T18:30:20.768Z,64.97
2022-10-04T18:32:54.812Z,65.37
2022-10-04T18:35:28.455Z,65.09
2022-10-04T18:37:51.856Z,65.17
2022-10-04T18:40:34.690Z,65.42
2022-10-04T18:43:01.686Z,65.41
2022-10-04T18:45:32.414Z,65.52
2022-10-04T18:47:56.974Z,65.89
2022-10-04T18:50:43.603Z,65.94
2022-10-04T18:53:45.857Z,65.96
2022-10-04T18:56:11.607Z,65.93
2022-10-04T18:59:19.443Z,66.07
2022-10-04T19:02:06.757Z,66.09
2022-10-04T19:04:40.956Z,65.98
2022-10-04T19:07:33.413Z,66.23
2022-10-04T19:10:29.767Z,66.45
2022-10-04T19:12:57.503Z,66.55
2022-10-04T19:15:43.810Z,66.39
2022-10-04T19:18:51.955Z,66.37
2022-10-04T19:21:59.295Z,66.57
2022-10-04T19:25:10.951Z,66.48
2022-10-04T19:27:40.197Z,66.36
2022-10-04T19:30:25.289Z,66.63
2022-10-04T19:33:47.883Z,66.57
2022-10-04T19:36:39.329Z,66.73
2022-10-04T19:39:25.389Z,66.72
2022-10-04T19:42:12.581Z,66.79
2022-10-04T19:44:52.096Z,66.81
2022-10-04T19:47:59.122Z,67.05
2022-10-04T19:50:40.093Z,67.43
2022-10-04T19:53:28.053Z,68.10
2022-10-04T19:55:59.094Z,68.38
2022-10-04T19:58:33.734Z,68.59
2022-10-04T20:00:56.191Z,68.62
2022-10-04T20:03:18.036Z,68.74
2022-10-04T20:05:46.720Z,68.75
2022-10-04T20:08:14.364Z,68.89
2022-10-04T20:10:38.763Z,68.71
2022-10-04T20:13:21.379Z,68.66
2022-10-04T20:15:53.294Z,68.68
2022-10-04T20:18:33.504Z,68.59
2022-10-04T20:20:55.211Z,68.58
2022-10-04T20:23:39.410Z,68.54
2022-10-04T20:26:03.979Z,68.56
2022-10-04T20:28:28.871Z,68.77
2022-10-04T20:30:54.079Z,68.91
2022-10-04T20:33:39.192Z,68.75
2022-10-04T20:36:06.088Z,68.56
2022-10-04T20:38:48.032Z,68.60
2022-10-04T20:42:01.333Z,68.63
2022-10-04T20:44:57.901Z,68.58
2022-10-04T20:47:46.733Z,68.41
2022-10-04T20:50:18.979Z,68.53
2022-10-04T20:52:54.209Z,68.44
2022-10-04T20:55:39.002Z,68.38
2022-10-04T20:58:21.106Z,68.10
2022-10-04T21:00:56.681Z,68.05
2022-10-04T21:03:18.887Z,68.12
2022-10-04T21:05:40.719Z,68.20
2022-10-04T21:08:36.644Z,67.98
2022-10-04T21:11:18.354Z,67.99
2022-10-04T21:14:00.128Z,68.02
2022-10-04T21:16:40.956Z,68.07
2022-10-04T21:19:33.694Z,67.87
2022-10-04T21:21:57.227Z,67.96
2022-10-04T21:24:53.279Z,67.87
2022-10-04T21:27:37.421Z,68.11
2022-10-04T21:30:01.732Z,67.73
2022-10-04T21:32:25.725Z,67.73
2022-10-04T21:34:53.439Z,67.74
2022-10-04T21:37:17.343Z,67.80
2022-10-04T21:39:39.106Z,67.81
2022-10-04T21:42:00.846Z,67.80
2022-10-04T21:44:22.646Z,67.86
2022-10-04T21:46:44.649Z,67.94
2022-10-04T21:49:07.393Z,67.84
2022-10-04T21:51:32.950Z,67.92
2022-10-04T21:53:54.825Z,67.97
2022-10-04T21:56:16.605Z,67.89
2022-10-04T21:58:38.358Z,68.04
2022-10-04T22:01:00.284Z,68.20
2022-10-04T22:03:22.166Z,68.06
2022-10-04T22:05:44.079Z,68.14
2022-10-04T22:08:06.288Z,68.14
2022-10-04T22:10:28.504Z,68.26
2022-10-04T22:12:50.959Z,68.11
2022-10-04T22:15:13.647Z,68.20
2022-10-04T22:17:35.669Z,68.24
2022-10-04T22:19:57.444Z,68.28
2022-10-04T22:22:19.856Z,68.51
2022-10-04T22:24:42.361Z,68.47
2022-10-04T22:27:14.324Z,68.55
2022-10-04T22:29:36.743Z,68.43
2022-10-04T22:31:58.587Z,68.72
2022-10-04T22:34:22.857Z,68.73
2022-10-04T22:36:46.453Z,68.85
2022-10-04T22:39:08.330Z,68.87
2022-10-04T22:41:40.700Z,68.76
2022-10-04T22:44:19.766Z,68.97
2022-10-04T22:46:46.080Z,69.11
2022-10-04T22:49:16.209Z,69.02
2022-10-04T22:51:41.416Z,69.17
2022-10-04T22:54:19.807Z,69.25
2022-10-04T22:56:42.153Z,69.42
2022-10-04T22:59:03.968Z,69.62
2022-10-04T23:01:27.801Z,69.58
2022-10-04T23:03:49.760Z,69.64
2022-10-04T23:06:14.260Z,69.72
2022-10-04T23:08:36.035Z,69.96
2022-10-04T23:11:00.625Z,69.98
2022-10-04T23:13:25.134Z,70.17
2022-10-04T23:15:46.915Z,69.95
2022-10-04T23:18:18.009Z,70.25
2022-10-04T23:20:39.860Z,70.28
2022-10-04T23:23:02.721Z,70.47
2022-10-04T23:25:30.079Z,70.69
2022-10-04T23:27:52.445Z,70.84
2022-10-04T23:30:20.896Z,70.95
2022-10-04T23:32:46.327Z,71.00
2022-10-04T23:35:26.019Z,71.14
2022-10-04T23:37:49.327Z,71.35
2022-10-04T23:40:15.039Z,71.16
2022-10-04T23:42:37.066Z,71.39
2022-10-04T23:45:01.634Z,71.31
2022-10-04T23:47:31.750Z,71.42
2022-10-04T23:49:53.832Z,71.30
2022-10-04T23:52:37.495Z,71.40
2022-10-04T23:54:59.250Z,71.41
2022-10-04T23:57:25.835Z,71.38
2022-10-04T23:59:48.766Z,71.44
